« Back
NWS Peachtree City, Ga » Text Product » AHN Terminal Aerodrome Forecast


Printer-friendly Version
Current Version              Previous Versions:   1  2  3  4  5  6  7  8  9  

Terminal Aerodrome Forecast

797
FTAK31 PAJN 260533
TAFAHN
TAF
PAHN 260533Z 2606/2706 09010KT P6SM VCSH SCT025 OVC070
     FM260900 10007KT P6SM -RA BKN025 OVC035
     FM261800 10012G20KT P6SM -RA BKN025 OVC035
      AMD LTD TO CLD VIS AND WIND=



USA.gov is the U.S. government's official web portal to all federal, state and local government web resources and services.